createdAt,value
2017-02-27T00:01:33.922Z,0
2017-02-27T00:11:48.132Z,0
2017-02-27T00:22:02.894Z,0
2017-02-27T00:32:17.192Z,0
2017-02-27T00:42:31.091Z,0
2017-02-27T00:52:44.840Z,0
2017-02-27T01:02:58.664Z,0
2017-02-27T01:13:13.184Z,0
2017-02-27T01:23:27.368Z,0
2017-02-27T01:33:41.479Z,0
2017-02-27T01:54:07.757Z,0
2017-02-27T02:04:21.629Z,0
2017-02-27T02:14:35.967Z,0
2017-02-27T02:24:49.049Z,0
2017-02-27T02:35:04.037Z,0
2017-02-27T02:45:18.064Z,0
2017-02-27T02:55:32.837Z,0
2017-02-27T03:05:47.881Z,0
2017-02-27T03:16:01.633Z,0
2017-02-27T03:26:15.996Z,0
2017-02-27T03:36:30.741Z,0
2017-02-27T03:46:45.761Z,0
2017-02-27T03:56:59.398Z,0
2017-02-27T04:07:13.476Z,0
2017-02-27T04:17:26.640Z,0
2017-02-27T04:27:41.745Z,0
2017-02-27T04:37:55.000Z,0
2017-02-27T04:48:09.635Z,0
2017-02-27T04:58:24.692Z,0
2017-02-27T05:08:38.825Z,0
2017-02-27T05:18:53.346Z,0
2017-02-27T05:29:08.161Z,0
2017-02-27T05:39:21.373Z,0
2017-02-27T05:49:35.918Z,0
2017-02-27T05:59:49.265Z,8
2017-02-27T06:10:03.393Z,36
2017-02-27T06:20:17.044Z,104
2017-02-27T06:30:30.759Z,280
2017-02-27T06:40:44.969Z,600
2017-02-27T06:50:59.921Z,888
2017-02-27T07:01:13.909Z,1340
2017-02-27T07:11:27.126Z,2664
2017-02-27T07:21:42.012Z,2452
2017-02-27T07:31:56.504Z,4052
2017-02-27T07:42:10.275Z,6636
2017-02-27T07:52:23.359Z,5256
2017-02-27T08:02:38.530Z,6548
2017-02-27T08:12:51.874Z,10780
2017-02-27T08:23:06.790Z,10180
2017-02-27T08:33:20.423Z,14268
2017-02-27T08:43:34.172Z,14044
2017-02-27T08:53:48.993Z,8008
2017-02-27T09:04:03.178Z,16096
2017-02-27T09:14:17.046Z,30048
2017-02-27T09:24:32.064Z,13324
2017-02-27T09:34:46.223Z,24032
2017-02-27T09:44:59.435Z,13156
2017-02-27T09:55:14.178Z,10908
2017-02-27T10:05:28.969Z,14484
2017-02-27T10:15:43.400Z,17408
2017-02-27T10:25:57.457Z,20928
2017-02-27T10:36:12.381Z,20064
2017-02-27T10:46:26.350Z,23392
2017-02-27T10:56:40.706Z,19744
2017-02-27T11:06:55.875Z,19424
2017-02-27T11:17:09.487Z,18688
2017-02-27T11:27:23.926Z,9556
2017-02-27T11:37:37.458Z,15568
2017-02-27T11:47:51.728Z,12300
2017-02-27T11:58:06.314Z,14632
2017-02-27T12:08:19.592Z,19712
2017-02-27T12:18:33.980Z,13864
2017-02-27T12:28:47.455Z,11584
2017-02-27T12:39:01.307Z,16796
2017-02-27T12:49:14.484Z,18368
2017-02-27T12:59:27.964Z,14612
2017-02-27T13:09:41.541Z,13460
2017-02-27T13:19:55.377Z,11796
2017-02-27T13:30:10.493Z,7276
2017-02-27T13:40:24.190Z,9968
2017-02-27T13:50:38.416Z,12864
2017-02-27T14:00:51.766Z,6064
2017-02-27T14:11:05.241Z,9100
2017-02-27T14:21:20.579Z,11996
2017-02-27T14:31:35.042Z,11932
2017-02-27T14:41:48.742Z,12960
2017-02-27T14:52:02.770Z,13572
2017-02-27T15:02:17.110Z,12136
2017-02-27T15:12:31.120Z,11728
2017-02-27T15:22:45.033Z,12324
2017-02-27T15:33:00.073Z,8216
2017-02-27T15:43:14.049Z,4004
2017-02-27T15:53:28.399Z,3312
2017-02-27T16:03:42.233Z,3344
2017-02-27T16:13:56.280Z,2360
2017-02-27T16:24:10.728Z,1528
2017-02-27T16:34:24.032Z,672
2017-02-27T16:44:37.465Z,520
2017-02-27T16:54:51.094Z,300
2017-02-27T17:05:04.112Z,128
2017-02-27T17:15:17.889Z,28
2017-02-27T17:25:31.840Z,4
2017-02-27T17:35:46.627Z,0
2017-02-27T17:46:01.444Z,0
2017-02-27T17:56:14.491Z,0
2017-02-27T18:16:42.542Z,0
2017-02-27T18:26:55.626Z,0
2017-02-27T18:37:09.974Z,0
2017-02-27T18:47:23.809Z,0
2017-02-27T19:07:50.668Z,0
2017-02-27T19:18:05.111Z,0
2017-02-27T19:28:18.671Z,0
2017-02-27T19:38:31.973Z,0
2017-02-27T19:48:46.656Z,0
2017-02-27T19:59:01.710Z,0
2017-02-27T20:09:15.266Z,0
2017-02-27T20:19:29.207Z,0
2017-02-27T20:29:43.076Z,0
2017-02-27T20:39:57.313Z,0
2017-02-27T20:50:12.097Z,0
2017-02-27T21:00:25.658Z,0
2017-02-27T21:10:40.370Z,0
2017-02-27T21:20:54.207Z,0
2017-02-27T21:31:08.922Z,0
2017-02-27T21:41:22.988Z,0
2017-02-27T21:51:36.654Z,0
2017-02-27T22:01:51.840Z,0
2017-02-27T22:12:05.218Z,0
2017-02-27T22:22:18.639Z,0
2017-02-27T22:32:33.019Z,0
2017-02-27T22:42:47.924Z,0
2017-02-27T22:53:02.933Z,0
2017-02-27T23:03:16.812Z,0
2017-02-27T23:13:30.668Z,0
2017-02-27T23:23:44.711Z,0
2017-02-27T23:33:59.608Z,0
2017-02-27T23:44:13.534Z,0
2017-02-27T23:54:27.502Z,0
